sensor_id;sensor_type;location;lat;lon;timestamp;P1;durP1;ratioP1;P2;durP2;ratioP2
25045;SDS011;13044;49.304;12.840;2022-12-29T00:01:59;3.20;;;2.42;;
25045;SDS011;13044;49.304;12.840;2022-12-29T00:04:26;4.20;;;2.83;;
25045;SDS011;13044;49.304;12.840;2022-12-29T00:06:53;4.65;;;2.38;;
25045;SDS011;13044;49.304;12.840;2022-12-29T00:09:20;3.33;;;2.33;;
25045;SDS011;13044;49.304;12.840;2022-12-29T00:11:47;3.97;;;2.40;;
25045;SDS011;13044;49.304;12.840;2022-12-29T00:14:16;4.13;;;2.30;;
25045;SDS011;13044;49.304;12.840;2022-12-29T00:17:02;3.03;;;2.17;;
25045;SDS011;13044;49.304;12.840;2022-12-29T00:19:29;2.80;;;2.47;;
25045;SDS011;13044;49.304;12.840;2022-12-29T00:22:14;4.05;;;2.22;;
25045;SDS011;13044;49.304;12.840;2022-12-29T00:25:00;4.05;;;2.70;;
25045;SDS011;13044;49.304;12.840;2022-12-29T00:27:45;5.53;;;2.90;;
25045;SDS011;13044;49.304;12.840;2022-12-29T00:30:32;3.83;;;2.67;;
25045;SDS011;13044;49.304;12.840;2022-12-29T00:33:19;5.40;;;2.90;;
25045;SDS011;13044;49.304;12.840;2022-12-29T00:36:20;4.05;;;2.63;;
25045;SDS011;13044;49.304;12.840;2022-12-29T00:39:14;4.90;;;3.05;;
25045;SDS011;13044;49.304;12.840;2022-12-29T00:42:04;7.03;;;3.33;;
25045;SDS011;13044;49.304;12.840;2022-12-29T00:44:51;4.05;;;2.90;;
25045;SDS011;13044;49.304;12.840;2022-12-29T00:47:17;4.55;;;3.05;;
25045;SDS011;13044;49.304;12.840;2022-12-29T00:49:44;4.95;;;2.97;;
25045;SDS011;13044;49.304;12.840;2022-12-29T00:52:12;4.05;;;2.85;;
25045;SDS011;13044;49.304;12.840;2022-12-29T00:54:40;4.75;;;2.78;;
25045;SDS011;13044;49.304;12.840;2022-12-29T00:57:08;3.25;;;2.60;;
25045;SDS011;13044;49.304;12.840;2022-12-29T00:59:36;3.25;;;2.28;;
25045;SDS011;13044;49.304;12.840;2022-12-29T01:02:05;3.83;;;2.60;;
25045;SDS011;13044;49.304;12.840;2022-12-29T01:04:33;4.05;;;2.65;;
25045;SDS011;13044;49.304;12.840;2022-12-29T01:07:00;4.05;;;2.70;;
25045;SDS011;13044;49.304;12.840;2022-12-29T01:09:27;5.47;;;2.72;;
25045;SDS011;13044;49.304;12.840;2022-12-29T01:12:13;3.58;;;2.88;;
25045;SDS011;13044;49.304;12.840;2022-12-29T01:14:40;4.80;;;2.97;;
25045;SDS011;13044;49.304;12.840;2022-12-29T01:17:07;5.85;;;2.60;;
25045;SDS011;13044;49.304;12.840;2022-12-29T01:19:34;5.53;;;2.70;;
25045;SDS011;13044;49.304;12.840;2022-12-29T01:22:00;6.43;;;2.95;;
25045;SDS011;13044;49.304;12.840;2022-12-29T01:24:28;5.05;;;3.20;;
25045;SDS011;13044;49.304;12.840;2022-12-29T01:26:54;4.63;;;3.05;;
25045;SDS011;13044;49.304;12.840;2022-12-29T01:29:21;5.50;;;2.95;;
25045;SDS011;13044;49.304;12.840;2022-12-29T01:31:48;4.80;;;2.58;;
25045;SDS011;13044;49.304;12.840;2022-12-29T01:34:16;6.43;;;3.30;;
25045;SDS011;13044;49.304;12.840;2022-12-29T01:36:44;4.90;;;2.80;;
25045;SDS011;13044;49.304;12.840;2022-12-29T01:39:11;3.58;;;2.80;;
25045;SDS011;13044;49.304;12.840;2022-12-29T01:41:39;5.60;;;2.92;;
25045;SDS011;13044;49.304;12.840;2022-12-29T01:47:25;6.10;;;3.30;;
25045;SDS011;13044;49.304;12.840;2022-12-29T01:50:45;4.18;;;3.00;;
25045;SDS011;13044;49.304;12.840;2022-12-29T01:53:00;3.92;;;2.50;;
25045;SDS011;13044;49.304;12.840;2022-12-29T01:55:54;3.88;;;2.67;;
25045;SDS011;13044;49.304;12.840;2022-12-29T01:58:27;5.20;;;3.13;;
25045;SDS011;13044;49.304;12.840;2022-12-29T02:01:00;4.82;;;2.80;;
25045;SDS011;13044;49.304;12.840;2022-12-29T02:03:27;4.35;;;2.92;;
25045;SDS011;13044;49.304;12.840;2022-12-29T02:06:00;4.35;;;2.80;;
25045;SDS011;13044;49.304;12.840;2022-12-29T02:08:32;5.28;;;2.47;;
25045;SDS011;13044;49.304;12.840;2022-12-29T02:10:59;4.28;;;2.67;;
25045;SDS011;13044;49.304;12.840;2022-12-29T02:13:28;4.07;;;2.85;;
25045;SDS011;13044;49.304;12.840;2022-12-29T02:31:32;3.88;;;2.90;;
25045;SDS011;13044;49.304;12.840;2022-12-29T02:42:55;3.45;;;2.65;;
25045;SDS011;13044;49.304;12.840;2022-12-29T02:50:59;4.75;;;2.85;;
25045;SDS011;13044;49.304;12.840;2022-12-29T02:53:38;4.45;;;2.72;;
25045;SDS011;13044;49.304;12.840;2022-12-29T02:56:25;4.68;;;2.97;;
25045;SDS011;13044;49.304;12.840;2022-12-29T02:58:51;3.33;;;2.70;;
25045;SDS011;13044;49.304;12.840;2022-12-29T03:04:49;4.05;;;2.55;;
25045;SDS011;13044;49.304;12.840;2022-12-29T03:10:17;3.80;;;2.40;;
25045;SDS011;13044;49.304;12.840;2022-12-29T03:13:06;3.78;;;2.70;;
25045;SDS011;13044;49.304;12.840;2022-12-29T03:24:37;4.45;;;2.60;;
25045;SDS011;13044;49.304;12.840;2022-12-29T03:27:10;4.30;;;2.83;;
25045;SDS011;13044;49.304;12.840;2022-12-29T03:29:47;4.20;;;2.70;;
25045;SDS011;13044;49.304;12.840;2022-12-29T03:32:22;3.13;;;2.50;;
25045;SDS011;13044;49.304;12.840;2022-12-29T03:34:57;5.00;;;2.38;;
25045;SDS011;13044;49.304;12.840;2022-12-29T03:37:29;3.45;;;2.10;;
25045;SDS011;13044;49.304;12.840;2022-12-29T03:40:03;3.38;;;2.60;;
25045;SDS011;13044;49.304;12.840;2022-12-29T03:42:32;4.28;;;2.70;;
25045;SDS011;13044;49.304;12.840;2022-12-29T03:45:02;3.03;;;2.30;;
25045;SDS011;13044;49.304;12.840;2022-12-29T03:47:31;3.20;;;2.13;;
25045;SDS011;13044;49.304;12.840;2022-12-29T03:49:59;2.88;;;2.35;;
25045;SDS011;13044;49.304;12.840;2022-12-29T03:52:25;5.70;;;3.20;;
25045;SDS011;13044;49.304;12.840;2022-12-29T03:54:52;6.20;;;2.60;;
25045;SDS011;13044;49.304;12.840;2022-12-29T03:57:19;3.90;;;2.72;;
25045;SDS011;13044;49.304;12.840;2022-12-29T03:59:46;5.10;;;3.08;;
25045;SDS011;13044;49.304;12.840;2022-12-29T04:02:13;3.30;;;2.55;;
25045;SDS011;13044;49.304;12.840;2022-12-29T04:04:40;3.40;;;2.63;;
25045;SDS011;13044;49.304;12.840;2022-12-29T04:07:07;4.03;;;2.60;;
25045;SDS011;13044;49.304;12.840;2022-12-29T04:09:34;3.05;;;2.30;;
25045;SDS011;13044;49.304;12.840;2022-12-29T04:12:00;3.10;;;2.60;;
25045;SDS011;13044;49.304;12.840;2022-12-29T04:14:27;3.78;;;2.70;;
25045;SDS011;13044;49.304;12.840;2022-12-29T04:16:54;3.55;;;2.80;;
25045;SDS011;13044;49.304;12.840;2022-12-29T04:19:21;3.60;;;2.80;;
25045;SDS011;13044;49.304;12.840;2022-12-29T04:21:48;3.03;;;2.53;;
25045;SDS011;13044;49.304;12.840;2022-12-29T04:24:14;6.15;;;2.95;;
25045;SDS011;13044;49.304;12.840;2022-12-29T04:26:43;4.70;;;2.78;;
25045;SDS011;13044;49.304;12.840;2022-12-29T04:29:10;4.28;;;2.70;;
25045;SDS011;13044;49.304;12.840;2022-12-29T04:31:37;4.72;;;2.72;;
25045;SDS011;13044;49.304;12.840;2022-12-29T04:34:04;4.45;;;2.90;;
25045;SDS011;13044;49.304;12.840;2022-12-29T04:36:31;3.97;;;2.50;;
25045;SDS011;13044;49.304;12.840;2022-12-29T04:38:58;4.90;;;3.10;;
25045;SDS011;13044;49.304;12.840;2022-12-29T04:41:25;3.30;;;2.55;;
25045;SDS011;13044;49.304;12.840;2022-12-29T04:43:52;5.90;;;3.00;;
25045;SDS011;13044;49.304;12.840;2022-12-29T04:46:18;5.32;;;3.40;;
25045;SDS011;13044;49.304;12.840;2022-12-29T04:48:45;4.43;;;2.50;;
25045;SDS011;13044;49.304;12.840;2022-12-29T04:51:12;3.72;;;2.58;;
25045;SDS011;13044;49.304;12.840;2022-12-29T04:53:39;4.63;;;3.15;;
25045;SDS011;13044;49.304;12.840;2022-12-29T04:56:06;16.13;;;7.85;;
25045;SDS011;13044;49.304;12.840;2022-12-29T04:58:35;40.10;;;20.52;;
25045;SDS011;13044;49.304;12.840;2022-12-29T05:01:02;45.75;;;21.48;;
25045;SDS011;13044;49.304;12.840;2022-12-29T05:03:29;42.38;;;19.60;;
25045;SDS011;13044;49.304;12.840;2022-12-29T05:05:56;54.25;;;25.23;;
25045;SDS011;13044;49.304;12.840;2022-12-29T05:08:23;48.95;;;23.00;;
25045;SDS011;13044;49.304;12.840;2022-12-29T05:10:53;52.10;;;25.92;;
25045;SDS011;13044;49.304;12.840;2022-12-29T05:13:20;38.08;;;18.38;;
25045;SDS011;13044;49.304;12.840;2022-12-29T05:15:49;27.45;;;12.70;;
25045;SDS011;13044;49.304;12.840;2022-12-29T05:18:18;18.48;;;9.55;;
25045;SDS011;13044;49.304;12.840;2022-12-29T05:20:45;15.95;;;8.05;;
25045;SDS011;13044;49.304;12.840;2022-12-29T05:23:13;20.27;;;11.38;;
25045;SDS011;13044;49.304;12.840;2022-12-29T05:25:40;15.20;;;8.43;;
25045;SDS011;13044;49.304;12.840;2022-12-29T05:28:07;21.27;;;10.88;;
25045;SDS011;13044;49.304;12.840;2022-12-29T05:30:34;28.75;;;13.75;;
25045;SDS011;13044;49.304;12.840;2022-12-29T05:33:00;23.95;;;10.45;;
25045;SDS011;13044;49.304;12.840;2022-12-29T05:35:27;15.00;;;8.13;;
25045;SDS011;13044;49.304;12.840;2022-12-29T05:37:54;13.90;;;7.93;;
25045;SDS011;13044;49.304;12.840;2022-12-29T05:40:21;12.55;;;7.18;;
25045;SDS011;13044;49.304;12.840;2022-12-29T05:42:48;10.82;;;6.25;;
25045;SDS011;13044;49.304;12.840;2022-12-29T05:45:15;8.07;;;5.07;;
25045;SDS011;13044;49.304;12.840;2022-12-29T05:47:41;10.75;;;6.57;;
25045;SDS011;13044;49.304;12.840;2022-12-29T05:50:08;9.23;;;5.55;;
25045;SDS011;13044;49.304;12.840;2022-12-29T05:52:35;7.55;;;4.65;;
25045;SDS011;13044;49.304;12.840;2022-12-29T05:55:02;8.40;;;5.30;;
25045;SDS011;13044;49.304;12.840;2022-12-29T05:57:29;13.27;;;6.05;;
25045;SDS011;13044;49.304;12.840;2022-12-29T05:59:56;8.60;;;5.32;;
25045;SDS011;13044;49.304;12.840;2022-12-29T06:02:23;8.45;;;4.90;;
25045;SDS011;13044;49.304;12.840;2022-12-29T06:04:50;7.75;;;4.47;;
25045;SDS011;13044;49.304;12.840;2022-12-29T06:07:17;6.78;;;4.75;;
25045;SDS011;13044;49.304;12.840;2022-12-29T06:09:43;5.97;;;3.60;;
25045;SDS011;13044;49.304;12.840;2022-12-29T06:12:10;5.03;;;3.30;;
25045;SDS011;13044;49.304;12.840;2022-12-29T06:14:37;5.53;;;3.60;;
25045;SDS011;13044;49.304;12.840;2022-12-29T06:17:04;4.85;;;3.40;;
25045;SDS011;13044;49.304;12.840;2022-12-29T06:19:31;5.63;;;3.53;;
25045;SDS011;13044;49.304;12.840;2022-12-29T06:21:58;4.65;;;3.42;;
25045;SDS011;13044;49.304;12.840;2022-12-29T06:24:25;5.15;;;3.63;;
25045;SDS011;13044;49.304;12.840;2022-12-29T06:26:52;3.92;;;2.90;;
25045;SDS011;13044;49.304;12.840;2022-12-29T06:29:18;7.65;;;3.17;;
25045;SDS011;13044;49.304;12.840;2022-12-29T06:31:46;5.68;;;3.05;;
25045;SDS011;13044;49.304;12.840;2022-12-29T06:34:15;5.70;;;2.75;;
25045;SDS011;13044;49.304;12.840;2022-12-29T06:36:42;4.93;;;2.88;;
25045;SDS011;13044;49.304;12.840;2022-12-29T06:39:09;7.28;;;3.00;;
25045;SDS011;13044;49.304;12.840;2022-12-29T06:41:36;4.43;;;2.72;;
25045;SDS011;13044;49.304;12.840;2022-12-29T06:44:04;6.88;;;3.95;;
25045;SDS011;13044;49.304;12.840;2022-12-29T06:46:30;6.22;;;3.40;;
25045;SDS011;13044;49.304;12.840;2022-12-29T06:48:57;7.07;;;3.70;;
25045;SDS011;13044;49.304;12.840;2022-12-29T06:51:24;4.40;;;2.88;;
25045;SDS011;13044;49.304;12.840;2022-12-29T06:53:51;5.38;;;3.13;;
25045;SDS011;13044;49.304;12.840;2022-12-29T06:56:18;5.55;;;3.28;;
25045;SDS011;13044;49.304;12.840;2022-12-29T06:58:44;4.10;;;2.88;;
25045;SDS011;13044;49.304;12.840;2022-12-29T07:01:11;5.22;;;2.60;;
25045;SDS011;13044;49.304;12.840;2022-12-29T07:03:40;2.83;;;2.05;;
25045;SDS011;13044;49.304;12.840;2022-12-29T07:06:09;4.70;;;1.88;;
25045;SDS011;13044;49.304;12.840;2022-12-29T07:08:35;4.18;;;2.13;;
25045;SDS011;13044;49.304;12.840;2022-12-29T07:11:02;3.65;;;2.05;;
25045;SDS011;13044;49.304;12.840;2022-12-29T07:13:29;3.78;;;2.30;;
25045;SDS011;13044;49.304;12.840;2022-12-29T07:15:56;5.80;;;2.63;;
25045;SDS011;13044;49.304;12.840;2022-12-29T07:18:23;3.38;;;2.25;;
25045;SDS011;13044;49.304;12.840;2022-12-29T07:20:50;3.63;;;2.38;;
25045;SDS011;13044;49.304;12.840;2022-12-29T07:23:16;6.25;;;2.50;;
25045;SDS011;13044;49.304;12.840;2022-12-29T07:25:43;5.05;;;2.90;;
25045;SDS011;13044;49.304;12.840;2022-12-29T07:28:10;5.85;;;3.47;;
25045;SDS011;13044;49.304;12.840;2022-12-29T07:30:37;9.25;;;4.88;;
25045;SDS011;13044;49.304;12.840;2022-12-29T07:33:04;5.70;;;4.05;;
25045;SDS011;13044;49.304;12.840;2022-12-29T07:35:32;8.45;;;5.30;;
25045;SDS011;13044;49.304;12.840;2022-12-29T07:38:00;13.80;;;6.10;;
25045;SDS011;13044;49.304;12.840;2022-12-29T07:40:27;10.90;;;5.82;;
25045;SDS011;13044;49.304;12.840;2022-12-29T07:42:54;10.23;;;5.45;;
25045;SDS011;13044;49.304;12.840;2022-12-29T07:45:20;8.48;;;4.70;;
25045;SDS011;13044;49.304;12.840;2022-12-29T07:47:48;15.63;;;8.18;;
25045;SDS011;13044;49.304;12.840;2022-12-29T07:50:16;13.50;;;6.13;;
25045;SDS011;13044;49.304;12.840;2022-12-29T07:52:42;18.73;;;7.50;;
25045;SDS011;13044;49.304;12.840;2022-12-29T07:55:12;17.02;;;7.50;;
25045;SDS011;13044;49.304;12.840;2022-12-29T07:57:38;8.55;;;4.78;;
25045;SDS011;13044;49.304;12.840;2022-12-29T08:00:05;8.90;;;5.05;;
25045;SDS011;13044;49.304;12.840;2022-12-29T08:02:33;9.45;;;6.07;;
25045;SDS011;13044;49.304;12.840;2022-12-29T08:05:00;3.95;;;2.47;;
25045;SDS011;13044;49.304;12.840;2022-12-29T08:07:27;5.55;;;2.60;;
25045;SDS011;13044;49.304;12.840;2022-12-29T08:09:54;5.40;;;2.17;;
25045;SDS011;13044;49.304;12.840;2022-12-29T08:12:20;3.88;;;2.15;;
25045;SDS011;13044;49.304;12.840;2022-12-29T08:14:48;4.75;;;2.22;;
25045;SDS011;13044;49.304;12.840;2022-12-29T08:17:15;2.88;;;2.13;;
25045;SDS011;13044;49.304;12.840;2022-12-29T08:19:41;3.42;;;1.98;;
25045;SDS011;13044;49.304;12.840;2022-12-29T08:22:08;3.03;;;2.13;;
25045;SDS011;13044;49.304;12.840;2022-12-29T08:24:35;3.05;;;1.90;;
25045;SDS011;13044;49.304;12.840;2022-12-29T08:27:02;4.68;;;2.90;;
25045;SDS011;13044;49.304;12.840;2022-12-29T08:29:43;5.35;;;3.90;;
25045;SDS011;13044;49.304;12.840;2022-12-29T08:32:10;3.03;;;2.40;;
25045;SDS011;13044;49.304;12.840;2022-12-29T08:34:37;3.40;;;2.20;;
25045;SDS011;13044;49.304;12.840;2022-12-29T08:37:04;5.03;;;2.92;;
25045;SDS011;13044;49.304;12.840;2022-12-29T08:39:31;3.80;;;2.03;;
25045;SDS011;13044;49.304;12.840;2022-12-29T08:41:58;4.63;;;2.20;;
25045;SDS011;13044;49.304;12.840;2022-12-29T08:44:25;4.07;;;1.90;;
25045;SDS011;13044;49.304;12.840;2022-12-29T08:46:52;3.13;;;2.42;;
25045;SDS011;13044;49.304;12.840;2022-12-29T08:49:19;4.22;;;2.08;;
25045;SDS011;13044;49.304;12.840;2022-12-29T08:51:46;3.25;;;2.10;;
25045;SDS011;13044;49.304;12.840;2022-12-29T08:54:13;4.30;;;2.08;;
25045;SDS011;13044;49.304;12.840;2022-12-29T08:56:40;1.88;;;1.60;;
25045;SDS011;13044;49.304;12.840;2022-12-29T08:59:07;3.38;;;2.25;;
25045;SDS011;13044;49.304;12.840;2022-12-29T09:01:34;6.95;;;2.97;;
25045;SDS011;13044;49.304;12.840;2022-12-29T09:04:02;7.50;;;2.70;;
25045;SDS011;13044;49.304;12.840;2022-12-29T09:06:40;4.20;;;2.78;;
25045;SDS011;13044;49.304;12.840;2022-12-29T09:09:08;7.60;;;3.85;;
25045;SDS011;13044;49.304;12.840;2022-12-29T09:11:35;8.23;;;4.32;;
25045;SDS011;13044;49.304;12.840;2022-12-29T09:14:02;4.85;;;3.50;;
25045;SDS011;13044;49.304;12.840;2022-12-29T09:16:30;6.57;;;3.20;;
25045;SDS011;13044;49.304;12.840;2022-12-29T09:18:57;5.55;;;3.40;;
25045;SDS011;13044;49.304;12.840;2022-12-29T09:21:24;4.80;;;2.83;;
25045;SDS011;13044;49.304;12.840;2022-12-29T09:23:51;4.45;;;2.60;;
25045;SDS011;13044;49.304;12.840;2022-12-29T09:26:18;4.45;;;2.22;;
25045;SDS011;13044;49.304;12.840;2022-12-29T09:28:45;3.55;;;2.10;;
25045;SDS011;13044;49.304;12.840;2022-12-29T09:31:13;2.92;;;2.10;;
25045;SDS011;13044;49.304;12.840;2022-12-29T09:33:40;2.90;;;2.28;;
25045;SDS011;13044;49.304;12.840;2022-12-29T09:36:08;2.85;;;2.25;;
25045;SDS011;13044;49.304;12.840;2022-12-29T09:38:35;4.50;;;2.33;;
25045;SDS011;13044;49.304;12.840;2022-12-29T09:44:02;2.50;;;2.00;;
25045;SDS011;13044;49.304;12.840;2022-12-29T09:46:50;5.00;;;2.20;;
25045;SDS011;13044;49.304;12.840;2022-12-29T09:51:52;5.60;;;2.70;;
25045;SDS011;13044;49.304;12.840;2022-12-29T09:56:59;2.78;;;2.10;;
25045;SDS011;13044;49.304;12.840;2022-12-29T09:59:34;4.28;;;2.92;;
25045;SDS011;13044;49.304;12.840;2022-12-29T10:02:17;6.20;;;3.58;;
25045;SDS011;13044;49.304;12.840;2022-12-29T10:04:55;6.53;;;4.97;;
25045;SDS011;13044;49.304;12.840;2022-12-29T10:07:36;6.28;;;4.20;;
25045;SDS011;13044;49.304;12.840;2022-12-29T10:10:57;5.90;;;3.70;;
25045;SDS011;13044;49.304;12.840;2022-12-29T10:16:34;4.45;;;3.33;;
25045;SDS011;13044;49.304;12.840;2022-12-29T10:19:39;2.90;;;1.90;;
25045;SDS011;13044;49.304;12.840;2022-12-29T10:25:46;4.13;;;2.17;;
25045;SDS011;13044;49.304;12.840;2022-12-29T10:28:20;5.30;;;2.30;;
25045;SDS011;13044;49.304;12.840;2022-12-29T10:30:59;2.50;;;2.15;;
25045;SDS011;13044;49.304;12.840;2022-12-29T10:33:35;8.93;;;2.67;;
25045;SDS011;13044;49.304;12.840;2022-12-29T10:36:16;10.85;;;6.72;;
25045;SDS011;13044;49.304;12.840;2022-12-29T10:41:44;10.75;;;7.10;;
25045;SDS011;13044;49.304;12.840;2022-12-29T10:44:22;5.55;;;3.70;;
25045;SDS011;13044;49.304;12.840;2022-12-29T10:46:56;6.40;;;2.65;;
25045;SDS011;13044;49.304;12.840;2022-12-29T10:49:29;2.92;;;2.15;;
25045;SDS011;13044;49.304;12.840;2022-12-29T10:52:00;3.65;;;2.17;;
25045;SDS011;13044;49.304;12.840;2022-12-29T10:54:43;3.63;;;2.30;;
25045;SDS011;13044;49.304;12.840;2022-12-29T11:00:19;3.20;;;2.10;;
25045;SDS011;13044;49.304;12.840;2022-12-29T11:06:01;3.20;;;2.13;;
25045;SDS011;13044;49.304;12.840;2022-12-29T11:09:07;3.40;;;2.15;;
25045;SDS011;13044;49.304;12.840;2022-12-29T11:11:42;2.50;;;1.98;;
25045;SDS011;13044;49.304;12.840;2022-12-29T11:16:43;3.70;;;2.10;;
25045;SDS011;13044;49.304;12.840;2022-12-29T11:19:21;3.35;;;2.05;;
25045;SDS011;13044;49.304;12.840;2022-12-29T11:21:51;4.28;;;2.50;;
25045;SDS011;13044;49.304;12.840;2022-12-29T11:24:23;2.80;;;2.10;;
25045;SDS011;13044;49.304;12.840;2022-12-29T11:26:53;2.50;;;2.13;;
25045;SDS011;13044;49.304;12.840;2022-12-29T11:29:42;4.07;;;1.92;;
25045;SDS011;13044;49.304;12.840;2022-12-29T11:32:11;5.32;;;2.03;;
25045;SDS011;13044;49.304;12.840;2022-12-29T11:34:53;8.27;;;2.30;;
25045;SDS011;13044;49.304;12.840;2022-12-29T11:37:31;5.65;;;2.90;;
25045;SDS011;13044;49.304;12.840;2022-12-29T11:40:26;7.07;;;4.78;;
25045;SDS011;13044;49.304;12.840;2022-12-29T11:42:59;7.90;;;5.07;;
25045;SDS011;13044;49.304;12.840;2022-12-29T11:45:33;5.80;;;2.92;;
25045;SDS011;13044;49.304;12.840;2022-12-29T11:48:07;6.18;;;3.20;;
25045;SDS011;13044;49.304;12.840;2022-12-29T11:50:51;3.40;;;2.65;;
25045;SDS011;13044;49.304;12.840;2022-12-29T11:56:08;7.85;;;2.40;;
25045;SDS011;13044;49.304;12.840;2022-12-29T11:58:39;3.10;;;2.20;;
25045;SDS011;13044;49.304;12.840;2022-12-29T12:01:13;3.03;;;2.15;;
25045;SDS011;13044;49.304;12.840;2022-12-29T12:04:14;5.03;;;2.55;;
25045;SDS011;13044;49.304;12.840;2022-12-29T12:06:46;3.20;;;2.20;;
25045;SDS011;13044;49.304;12.840;2022-12-29T12:09:58;3.88;;;2.33;;
25045;SDS011;13044;49.304;12.840;2022-12-29T12:12:41;2.47;;;2.00;;
25045;SDS011;13044;49.304;12.840;2022-12-29T12:16:35;6.05;;;2.35;;
25045;SDS011;13044;49.304;12.840;2022-12-29T12:18:48;3.17;;;2.33;;
25045;SDS011;13044;49.304;12.840;2022-12-29T12:21:33;3.63;;;2.00;;
25045;SDS011;13044;49.304;12.840;2022-12-29T12:24:24;4.03;;;2.10;;
25045;SDS011;13044;49.304;12.840;2022-12-29T12:32:56;5.82;;;2.40;;
25045;SDS011;13044;49.304;12.840;2022-12-29T12:41:29;3.60;;;2.33;;
25045;SDS011;13044;49.304;12.840;2022-12-29T12:47:22;6.18;;;3.17;;
25045;SDS011;13044;49.304;12.840;2022-12-29T12:50:22;4.78;;;1.98;;
25045;SDS011;13044;49.304;12.840;2022-12-29T12:53:22;4.13;;;2.22;;
25045;SDS011;13044;49.304;12.840;2022-12-29T12:59:34;6.43;;;4.50;;
25045;SDS011;13044;49.304;12.840;2022-12-29T13:05:11;7.13;;;2.63;;
25045;SDS011;13044;49.304;12.840;2022-12-29T13:14:52;4.20;;;2.60;;
25045;SDS011;13044;49.304;12.840;2022-12-29T13:17:38;3.60;;;2.22;;
25045;SDS011;13044;49.304;12.840;2022-12-29T13:26:15;2.60;;;2.10;;
25045;SDS011;13044;49.304;12.840;2022-12-29T13:35:14;5.22;;;2.63;;
25045;SDS011;13044;49.304;12.840;2022-12-29T13:38:12;2.67;;;2.10;;
25045;SDS011;13044;49.304;12.840;2022-12-29T13:40:50;5.90;;;2.40;;
25045;SDS011;13044;49.304;12.840;2022-12-29T13:43:23;4.35;;;2.25;;
25045;SDS011;13044;49.304;12.840;2022-12-29T13:46:01;4.50;;;2.40;;
25045;SDS011;13044;49.304;12.840;2022-12-29T13:51:30;4.07;;;2.75;;
25045;SDS011;13044;49.304;12.840;2022-12-29T13:54:01;4.35;;;2.45;;
25045;SDS011;13044;49.304;12.840;2022-12-29T14:02:36;5.97;;;2.42;;
25045;SDS011;13044;49.304;12.840;2022-12-29T14:07:49;8.50;;;2.70;;
25045;SDS011;13044;49.304;12.840;2022-12-29T14:13:23;6.65;;;2.90;;
25045;SDS011;13044;49.304;12.840;2022-12-29T14:15:55;7.80;;;2.60;;
25045;SDS011;13044;49.304;12.840;2022-12-29T14:18:26;5.57;;;2.30;;
25045;SDS011;13044;49.304;12.840;2022-12-29T14:21:10;4.32;;;2.67;;
25045;SDS011;13044;49.304;12.840;2022-12-29T14:23:53;4.47;;;2.30;;
25045;SDS011;13044;49.304;12.840;2022-12-29T14:31:51;8.68;;;4.32;;
25045;SDS011;13044;49.304;12.840;2022-12-29T14:37:17;6.35;;;3.95;;
25045;SDS011;13044;49.304;12.840;2022-12-29T14:40:14;8.50;;;5.10;;
25045;SDS011;13044;49.304;12.840;2022-12-29T14:42:53;6.38;;;3.58;;
25045;SDS011;13044;49.304;12.840;2022-12-29T14:45:30;5.53;;;2.60;;
25045;SDS011;13044;49.304;12.840;2022-12-29T14:48:03;4.88;;;2.90;;
25045;SDS011;13044;49.304;12.840;2022-12-29T14:56:16;6.32;;;3.92;;
25045;SDS011;13044;49.304;12.840;2022-12-29T15:04:18;10.60;;;4.10;;
25045;SDS011;13044;49.304;12.840;2022-12-29T15:06:49;7.32;;;3.72;;
25045;SDS011;13044;49.304;12.840;2022-12-29T15:09:38;8.20;;;4.80;;
25045;SDS011;13044;49.304;12.840;2022-12-29T15:14:57;8.55;;;4.80;;
25045;SDS011;13044;49.304;12.840;2022-12-29T15:17:27;9.30;;;3.80;;
25045;SDS011;13044;49.304;12.840;2022-12-29T15:20:00;5.93;;;3.80;;
25045;SDS011;13044;49.304;12.840;2022-12-29T15:22:46;6.50;;;4.03;;
25045;SDS011;13044;49.304;12.840;2022-12-29T15:25:22;7.78;;;4.00;;
25045;SDS011;13044;49.304;12.840;2022-12-29T15:27:51;5.95;;;3.78;;
25045;SDS011;13044;49.304;12.840;2022-12-29T15:30:20;4.55;;;3.45;;
25045;SDS011;13044;49.304;12.840;2022-12-29T15:32:49;7.55;;;4.75;;
25045;SDS011;13044;49.304;12.840;2022-12-29T15:35:27;9.25;;;4.50;;
25045;SDS011;13044;49.304;12.840;2022-12-29T15:38:11;7.13;;;4.03;;
25045;SDS011;13044;49.304;12.840;2022-12-29T15:40:45;10.77;;;3.95;;
25045;SDS011;13044;49.304;12.840;2022-12-29T15:46:12;6.43;;;3.60;;
25045;SDS011;13044;49.304;12.840;2022-12-29T15:48:40;5.13;;;2.90;;
25045;SDS011;13044;49.304;12.840;2022-12-29T15:51:14;6.15;;;4.28;;
25045;SDS011;13044;49.304;12.840;2022-12-29T15:53:48;7.75;;;3.65;;
25045;SDS011;13044;49.304;12.840;2022-12-29T15:56:17;5.70;;;3.10;;
25045;SDS011;13044;49.304;12.840;2022-12-29T15:58:45;5.63;;;3.20;;
25045;SDS011;13044;49.304;12.840;2022-12-29T16:04:01;6.10;;;3.70;;
25045;SDS011;13044;49.304;12.840;2022-12-29T16:06:33;6.57;;;4.00;;
25045;SDS011;13044;49.304;12.840;2022-12-29T16:09:15;11.05;;;4.75;;
25045;SDS011;13044;49.304;12.840;2022-12-29T16:11:51;12.05;;;5.20;;
25045;SDS011;13044;49.304;12.840;2022-12-29T16:14:24;5.68;;;3.80;;
25045;SDS011;13044;49.304;12.840;2022-12-29T16:16:59;6.65;;;3.70;;
25045;SDS011;13044;49.304;12.840;2022-12-29T16:19:33;5.50;;;3.17;;
25045;SDS011;13044;49.304;12.840;2022-12-29T16:22:08;7.50;;;3.75;;
25045;SDS011;13044;49.304;12.840;2022-12-29T16:24:44;6.03;;;3.85;;
25045;SDS011;13044;49.304;12.840;2022-12-29T16:29:53;8.00;;;4.68;;
25045;SDS011;13044;49.304;12.840;2022-12-29T16:32:29;5.97;;;3.45;;
25045;SDS011;13044;49.304;12.840;2022-12-29T16:37:47;6.22;;;3.67;;
25045;SDS011;13044;49.304;12.840;2022-12-29T16:42:46;8.70;;;3.80;;
25045;SDS011;13044;49.304;12.840;2022-12-29T16:50:33;7.95;;;4.28;;
25045;SDS011;13044;49.304;12.840;2022-12-29T16:53:02;8.98;;;4.35;;
25045;SDS011;13044;49.304;12.840;2022-12-29T16:55:31;10.05;;;4.18;;
25045;SDS011;13044;49.304;12.840;2022-12-29T16:57:58;8.25;;;4.32;;
25045;SDS011;13044;49.304;12.840;2022-12-29T17:00:27;7.32;;;4.22;;
25045;SDS011;13044;49.304;12.840;2022-12-29T17:03:01;4.38;;;3.38;;
25045;SDS011;13044;49.304;12.840;2022-12-29T17:05:29;7.60;;;4.25;;
25045;SDS011;13044;49.304;12.840;2022-12-29T17:07:56;7.00;;;3.90;;
25045;SDS011;13044;49.304;12.840;2022-12-29T17:10:27;8.93;;;4.20;;
25045;SDS011;13044;49.304;12.840;2022-12-29T17:13:13;6.72;;;3.88;;
25045;SDS011;13044;49.304;12.840;2022-12-29T17:15:39;6.05;;;3.72;;
25045;SDS011;13044;49.304;12.840;2022-12-29T17:18:06;11.50;;;3.85;;
25045;SDS011;13044;49.304;12.840;2022-12-29T17:20:39;9.00;;;3.80;;
25045;SDS011;13044;49.304;12.840;2022-12-29T17:23:11;7.07;;;4.30;;
25045;SDS011;13044;49.304;12.840;2022-12-29T17:25:49;6.63;;;3.88;;
25045;SDS011;13044;49.304;12.840;2022-12-29T17:30:59;11.25;;;4.72;;
25045;SDS011;13044;49.304;12.840;2022-12-29T17:33:30;5.35;;;3.88;;
25045;SDS011;13044;49.304;12.840;2022-12-29T17:36:03;8.52;;;5.10;;
25045;SDS011;13044;49.304;12.840;2022-12-29T17:38:31;9.38;;;5.10;;
25045;SDS011;13044;49.304;12.840;2022-12-29T17:41:01;8.45;;;5.15;;
25045;SDS011;13044;49.304;12.840;2022-12-29T17:43:28;9.95;;;5.00;;
25045;SDS011;13044;49.304;12.840;2022-12-29T17:46:02;10.35;;;4.60;;
25045;SDS011;13044;49.304;12.840;2022-12-29T17:48:32;9.07;;;5.32;;
25045;SDS011;13044;49.304;12.840;2022-12-29T17:50:59;11.13;;;5.35;;
25045;SDS011;13044;49.304;12.840;2022-12-29T17:53:27;7.57;;;4.63;;
25045;SDS011;13044;49.304;12.840;2022-12-29T17:55:55;6.68;;;4.68;;
25045;SDS011;13044;49.304;12.840;2022-12-29T18:00:52;7.82;;;4.28;;
25045;SDS011;13044;49.304;12.840;2022-12-29T18:03:23;8.90;;;4.32;;